Datum - Zeit
Döttingen
TemperaturTaupunktFeuchteSolar Wind aus
Richtung
Windböenaus
Richtung
Luftdruck
(QFF)
RegenRegen
Stärke
26.05.2022 - 00.00Uhr15.7 °C9.3 °C66 %0.0 W/m²3.1 km/hOst-SO8.3 km/hOst-SO1021.0 hPa0.0 mm0.0 mm/h
26.05.2022 - 00.05Uhr15.7 °C9.2 °C65 %0.0 W/m²2.3 km/hOst-SO8.3 km/hOst-SO1021.0 hPa0.0 mm0.0 mm/h
26.05.2022 - 00.10Uhr15.7 °C9.1 °C65 %0.0 W/m²1.4 km/hOst-SO4.0 km/hOst-SO1021.0 hPa0.0 mm0.0 mm/h
26.05.2022 - 00.15Uhr15.5 °C9.3 °C66 %0.0 W/m²0.9 km/hOst-SO1.8 km/hOst-SO1021.1 hPa0.0 mm0.0 mm/h
26.05.2022 - 00.20Uhr15.5 °C9.2 °C66 %0.0 W/m²2.6 km/hOst-SO8.3 km/hOst-SO1021.1 hPa0.0 mm0.0 mm/h
26.05.2022 - 00.25Uhr15.6 °C9.3 °C66 %0.0 W/m²1.1 km/hOst-SO4.0 km/hOst-SO1021.1 hPa0.0 mm0.0 mm/h
26.05.2022 - 00.30Uhr15.6 °C9.4 °C67 %0.0 W/m²2.0 km/hOst-SO8.3 km/hOst-SO1021.1 hPa0.0 mm0.0 mm/h
26.05.2022 - 00.35Uhr15.5 °C9.2 °C66 %0.0 W/m²3.0 km/hOst-SO8.3 km/hOst-SO1021.1 hPa0.0 mm0.0 mm/h
26.05.2022 - 00.40Uhr15.4 °C9.3 °C67 %0.0 W/m²3.1 km/hOst-SO8.3 km/hOst-SO1021.2 hPa0.0 mm0.0 mm/h
26.05.2022 - 00.45Uhr15.1 °C9.4 °C69 %0.0 W/m²5.2 km/hOst-SO8.3 km/hOst-SO1021.2 hPa0.0 mm0.0 mm/h
26.05.2022 - 00.50Uhr14.9 °C9.5 °C70 %0.0 W/m²3.8 km/hOst-SO8.3 km/hOst-SO1021.2 hPa0.0 mm0.0 mm/h
26.05.2022 - 00.55Uhr14.9 °C9.7 °C71 %0.0 W/m²5.2 km/hNordosten8.3 km/hOsten1021.3 hPa0.0 mm0.0 mm/h
26.05.2022 - 01.00Uhr14.8 °C9.8 °C72 %0.0 W/m²3.4 km/hNordosten8.3 km/hNordosten1021.3 hPa0.0 mm0.0 mm/h
26.05.2022 - 01.05Uhr14.7 °C9.6 °C72 %0.0 W/m²3.3 km/hNordosten5.8 km/hNordosten1021.3 hPa0.0 mm0.0 mm/h
26.05.2022 - 01.10Uhr14.7 °C9.6 °C71 %0.0 W/m²2.2 km/hNordosten5.8 km/hNordosten1021.3 hPa0.0 mm0.0 mm/h
26.05.2022 - 01.15Uhr14.9 °C9.6 °C70 %0.0 W/m²1.3 km/hNordosten4.0 km/hNordosten1021.4 hPa0.0 mm0.0 mm/h
26.05.2022 - 01.20Uhr15.1 °C9.5 °C69 %0.0 W/m²0.7 km/hNordosten1.8 km/hNordosten1021.5 hPa0.0 mm0.0 mm/h
26.05.2022 - 01.25Uhr14.9 °C9.4 °C70 %0.0 W/m²1.7 km/hNordosten5.8 km/hNordosten1021.4 hPa0.0 mm0.0 mm/h
26.05.2022 - 01.30Uhr14.8 °C9.4 °C70 %0.0 W/m²1.3 km/hNordosten4.0 km/hNordosten1021.4 hPa0.0 mm0.0 mm/h
26.05.2022 - 01.35Uhr14.8 °C9.4 °C70 %0.0 W/m²3.0 km/hNordosten5.8 km/hNordosten1021.4 hPa0.0 mm0.0 mm/h
26.05.2022 - 01.40Uhr14.7 °C9.4 °C71 %0.0 W/m²4.1 km/hNordosten8.3 km/hNordosten1021.4 hPa0.0 mm0.0 mm/h
26.05.2022 - 01.45Uhr14.6 °C9.4 °C71 %0.0 W/m²4.6 km/hNordosten8.3 km/hNordosten1021.4 hPa0.0 mm0.0 mm/h
26.05.2022 - 01.50Uhr14.6 °C9.4 °C72 %0.0 W/m²2.6 km/hNordosten5.8 km/hNordosten1021.4 hPa0.0 mm0.0 mm/h
26.05.2022 - 01.55Uhr14.3 °C9.5 °C73 %0.0 W/m²1.8 km/hNordosten5.8 km/hNordosten1021.4 hPa0.0 mm0.0 mm/h
26.05.2022 - 02.00Uhr14.2 °C9.7 °C74 %0.0 W/m²1.5 km/hNordosten4.0 km/hNordosten1021.4 hPa0.0 mm0.0 mm/h
26.05.2022 - 02.05Uhr14.2 °C9.7 °C74 %0.0 W/m²0.9 km/hNordosten1.8 km/hNordosten1021.4 hPa0.0 mm0.0 mm/h
26.05.2022 - 02.10Uhr14.0 °C9.7 °C76 %0.0 W/m²2.1 km/hNordosten5.8 km/hNordosten1021.4 hPa0.0 mm0.0 mm/h
26.05.2022 - 02.15Uhr14.1 °C10.0 °C77 %0.0 W/m²2.7 km/hNordosten5.8 km/hNordosten1021.4 hPa0.0 mm0.0 mm/h
26.05.2022 - 02.20Uhr13.9 °C9.9 °C77 %0.0 W/m²2.8 km/hNordosten5.8 km/hNordosten1021.4 hPa0.0 mm0.0 mm/h
26.05.2022 - 02.25Uhr13.8 °C10.0 °C78 %0.0 W/m²1.6 km/hNordosten4.0 km/hNordosten1021.4 hPa0.0 mm0.0 mm/h
26.05.2022 - 02.30Uhr13.7 °C10.2 °C79 %0.0 W/m²1.9 km/hNordosten4.0 km/hNordosten1021.5 hPa0.0 mm0.0 mm/h
26.05.2022 - 02.35Uhr13.6 °C10.2 °C80 %0.0 W/m²0.4 km/hNordosten1.8 km/hNordosten1021.5 hPa0.0 mm0.0 mm/h
26.05.2022 - 02.40Uhr13.3 °C9.9 °C80 %0.0 W/m²1.2 km/hNordosten4.0 km/hNordosten1021.5 hPa0.0 mm0.0 mm/h
26.05.2022 - 02.45Uhr13.2 °C9.8 °C80 %0.0 W/m²1.0 km/hNordosten4.0 km/hNordosten1021.5 hPa0.0 mm0.0 mm/h
26.05.2022 - 02.50Uhr13.2 °C10.0 °C81 %0.0 W/m²0.3 km/hNordosten1.8 km/hNordosten1021.5 hPa0.0 mm0.0 mm/h
26.05.2022 - 02.55Uhr13.0 °C10.0 °C82 %0.0 W/m²1.0 km/hNordosten4.0 km/hNordosten1021.6 hPa0.0 mm0.0 mm/h
26.05.2022 - 03.00Uhr13.1 °C10.2 °C83 %0.0 W/m²0.0 km/hNordosten0.0 km/hNorden1021.5 hPa0.0 mm0.0 mm/h
26.05.2022 - 03.05Uhr13.2 °C10.1 °C82 %0.0 W/m²1.4 km/hNordosten4.0 km/hNordosten1021.5 hPa0.0 mm0.0 mm/h
26.05.2022 - 03.10Uhr13.1 °C10.0 °C82 %0.0 W/m²1.1 km/hNordosten4.0 km/hNordosten1021.5 hPa0.0 mm0.0 mm/h
26.05.2022 - 03.15Uhr12.8 °C10.0 °C83 %0.0 W/m²0.0 km/hNordosten0.0 km/hNorden1021.5 hPa0.0 mm0.0 mm/h
26.05.2022 - 03.20Uhr12.9 °C10.2 °C83 %0.0 W/m²0.4 km/hNordosten1.8 km/hNordosten1021.6 hPa0.0 mm0.0 mm/h
26.05.2022 - 03.25Uhr12.6 °C9.9 °C83 %0.0 W/m²0.4 km/hNordosten1.8 km/hNordosten1021.6 hPa0.0 mm0.0 mm/h
26.05.2022 - 03.30Uhr12.5 °C9.8 °C84 %0.0 W/m²0.7 km/hNordosten1.8 km/hNordosten1021.6 hPa0.0 mm0.0 mm/h
26.05.2022 - 03.35Uhr12.4 °C9.8 °C84 %0.0 W/m²1.3 km/hNordosten4.0 km/hNordosten1021.6 hPa0.0 mm0.0 mm/h
26.05.2022 - 03.40Uhr12.4 °C9.8 °C84 %0.0 W/m²0.8 km/hNordosten4.0 km/hNordosten1021.6 hPa0.0 mm0.0 mm/h
26.05.2022 - 03.45Uhr12.5 °C9.9 °C84 %0.0 W/m²0.0 km/hNordosten0.0 km/hNorden1021.6 hPa0.0 mm0.0 mm/h
26.05.2022 - 03.50Uhr12.6 °C10.0 °C84 %0.0 W/m²1.1 km/hNordosten4.0 km/hNordosten1021.7 hPa0.0 mm0.0 mm/h
26.05.2022 - 03.55Uhr12.7 °C10.1 °C84 %0.0 W/m²0.8 km/hNordosten1.8 km/hNordosten1021.7 hPa0.0 mm0.0 mm/h
26.05.2022 - 04.00Uhr12.8 °C10.0 °C83 %0.0 W/m²0.0 km/hNordosten0.0 km/hNorden0.0 mm0.0 mm/h